createdAt,value
2023-11-16T00:01:29.302Z,98937.13
2023-11-16T00:03:56.039Z,98938.31
2023-11-16T00:06:23.351Z,98946.41
2023-11-16T00:08:50.112Z,98937.94
2023-11-16T00:11:18.328Z,98919.69
2023-11-16T00:13:47.378Z,98921.97
2023-11-16T00:16:16.338Z,98927.34
2023-11-16T00:18:43.334Z,98911.63
2023-11-16T00:21:10.487Z,98910.88
2023-11-16T00:23:37.159Z,98910.09
2023-11-16T00:26:04.090Z,98922.19
2023-11-16T00:28:30.992Z,98909.63
2023-11-16T00:30:58.247Z,98909.63
2023-11-16T00:33:24.982Z,98900.81
2023-11-16T00:35:52.756Z,98897.41
2023-11-16T00:38:19.770Z,98892.63
2023-11-16T00:40:46.492Z,98890.16
2023-11-16T00:43:13.220Z,98892.16
2023-11-16T00:45:40.078Z,98890.47
2023-11-16T00:48:06.933Z,98894.22
2023-11-16T00:50:33.665Z,98909.06
2023-11-16T00:53:00.406Z,98905.38
2023-11-16T00:55:27.744Z,98912.81
2023-11-16T00:57:56.727Z,98907.81
2023-11-16T01:00:23.431Z,98902.94
2023-11-16T01:02:50.718Z,98910.44
2023-11-16T01:05:18.975Z,98902.84
2023-11-16T01:07:45.904Z,98896.63
2023-11-16T01:10:17.069Z,98895.41
2023-11-16T01:12:44.860Z,98882.13
2023-11-16T01:15:15.198Z,98888.78
2023-11-16T01:17:46.382Z,98890.59
2023-11-16T01:20:19.916Z,98885.22
2023-11-16T01:22:52.164Z,98898.53
2023-11-16T01:25:21.239Z,98894.13
2023-11-16T01:27:58.363Z,98894.06
2023-11-16T01:30:45.136Z,98893.16
2023-11-16T01:33:12.913Z,98897.41
2023-11-16T01:35:42.958Z,98902.66
2023-11-16T01:38:09.712Z,98897.31
2023-11-16T01:40:37.905Z,98894.03
2023-11-16T01:43:05.472Z,98892.03
2023-11-16T01:45:34.034Z,98886.16
2023-11-16T01:48:08.163Z,98879.06
2023-11-16T01:50:36.511Z,98875.69
2023-11-16T01:53:07.660Z,98876.03
2023-11-16T01:55:35.117Z,98873.84
2023-11-16T01:58:06.250Z,98878.50
2023-11-16T02:00:36.825Z,98872.41
2023-11-16T02:03:07.076Z,98871.22
2023-11-16T02:05:35.527Z,98853.94
2023-11-16T02:08:05.215Z,98855.25
2023-11-16T02:10:32.589Z,98851.59
2023-11-16T02:13:04.266Z,98858.59
2023-11-16T02:15:33.046Z,98848.31
2023-11-16T02:18:04.264Z,98847.16
2023-11-16T02:20:31.097Z,98844.31
2023-11-16T02:23:03.350Z,98843.59
2023-11-16T02:25:30.681Z,98831.97
2023-11-16T02:27:57.481Z,98831.03
2023-11-16T02:30:24.045Z,98844.22
2023-11-16T02:32:51.506Z,98857.56
2023-11-16T02:35:18.317Z,98858.13
2023-11-16T02:37:44.961Z,98867.94
2023-11-16T02:40:12.473Z,98878.31
2023-11-16T02:42:39.162Z,98869.13
2023-11-16T02:45:08.061Z,98854.13
2023-11-16T02:47:34.981Z,98845.78
2023-11-16T02:50:02.090Z,98836.16
2023-11-16T02:52:28.830Z,98809.28
2023-11-16T02:54:55.772Z,98795.47
2023-11-16T02:57:23.230Z,98794.47
2023-11-16T02:59:51.127Z,98802.06
2023-11-16T03:02:19.547Z,98808.22
2023-11-16T03:04:46.088Z,98811.34
2023-11-16T03:07:26.704Z,98824.75
2023-11-16T03:09:59.428Z,98836.78
2023-11-16T03:12:26.145Z,98824.25
2023-11-16T03:14:52.963Z,98821.91
2023-11-16T03:17:21.326Z,98809.19
2023-11-16T03:19:47.995Z,98815.19
2023-11-16T03:22:14.626Z,98823.13
2023-11-16T03:24:41.350Z,98823.41
2023-11-16T03:27:10.848Z,98809.19
2023-11-16T03:29:41.869Z,98806.66
2023-11-16T03:32:10.845Z,98806.41
2023-11-16T03:34:37.611Z,98801.25
2023-11-16T03:37:04.942Z,98804.81
2023-11-16T03:39:32.470Z,98808.34
2023-11-16T03:42:02.323Z,98803.75
2023-11-16T03:44:28.994Z,98810.06
2023-11-16T03:46:56.736Z,98805.19
2023-11-16T03:49:24.206Z,98805.53
2023-11-16T03:51:51.280Z,98806.25
2023-11-16T03:54:18.685Z,98803.69
2023-11-16T03:56:46.211Z,98805.97
2023-11-16T03:59:17.109Z,98807.53
2023-11-16T04:01:43.936Z,98805.06
2023-11-16T04:04:12.013Z,98795.22
2023-11-16T04:06:39.113Z,98793.44
2023-11-16T04:09:10.333Z,98784.59
2023-11-16T04:11:41.642Z,98786.06
2023-11-16T04:14:09.077Z,98778.44
2023-11-16T04:16:37.008Z,98784.69
2023-11-16T04:19:07.569Z,98778.66
2023-11-16T04:21:37.877Z,98786.31
2023-11-16T04:24:10.061Z,98787.75
2023-11-16T04:26:37.910Z,98775.88
2023-11-16T04:29:06.335Z,98769.16
2023-11-16T04:31:34.837Z,98775.09
2023-11-16T04:34:02.351Z,98777.72
2023-11-16T04:36:33.520Z,98773.97
2023-11-16T04:39:01.519Z,98769.81
2023-11-16T04:41:31.225Z,98773.41
2023-11-16T04:43:57.933Z,98774.94
2023-11-16T04:46:27.927Z,98759.19
2023-11-16T04:48:56.383Z,98757.25
2023-11-16T04:51:23.699Z,98752.25
2023-11-16T04:53:52.102Z,98743.91
2023-11-16T04:56:19.080Z,98742.47
2023-11-16T04:58:46.412Z,98732.44
2023-11-16T05:01:16.446Z,98734.59
2023-11-16T05:03:46.333Z,98732.19
2023-11-16T05:06:14.833Z,98725.34
2023-11-16T05:08:42.564Z,98729.59
2023-11-16T05:11:09.552Z,98729.38
2023-11-16T05:13:36.706Z,98722.50
2023-11-16T05:16:06.617Z,98722.50
2023-11-16T05:18:33.707Z,98712.03
2023-11-16T05:21:05.473Z,98709.25
2023-11-16T05:23:32.315Z,98710.19
2023-11-16T05:25:58.977Z,98709.84
2023-11-16T05:28:27.158Z,98711.81
2023-11-16T05:30:54.460Z,98711.56
2023-11-16T05:33:24.005Z,98704.09
2023-11-16T05:35:54.962Z,98702.16
2023-11-16T05:38:23.346Z,98707.41
2023-11-16T05:40:53.694Z,98694.03
2023-11-16T05:43:21.358Z,98697.56
2023-11-16T05:45:48.629Z,98698.63
2023-11-16T05:48:16.790Z,98693.38
2023-11-16T05:50:44.708Z,98690.91
2023-11-16T05:53:12.677Z,98683.06
2023-11-16T05:55:39.725Z,98673.06
2023-11-16T05:58:09.134Z,98683.56
2023-11-16T06:00:39.463Z,98671.38
2023-11-16T06:03:07.993Z,98664.28
2023-11-16T06:05:36.433Z,98673.31
2023-11-16T06:08:03.201Z,98667.91
2023-11-16T06:10:29.802Z,98675.31
2023-11-16T06:12:59.107Z,98664.03
2023-11-16T06:15:32.288Z,98672.44
2023-11-16T06:18:04.159Z,98669.66
2023-11-16T06:20:31.129Z,98661.13
2023-11-16T06:22:58.062Z,98663.13
2023-11-16T06:25:25.214Z,98652.56
2023-11-16T06:27:51.954Z,98649.63
2023-11-16T06:30:20.059Z,98653.72
2023-11-16T06:32:48.920Z,98652.41
2023-11-16T06:35:15.726Z,98657.88
2023-11-16T06:37:43.137Z,98649.25
2023-11-16T06:40:10.633Z,98643.06
2023-11-16T06:42:38.924Z,98636.00
2023-11-16T06:45:06.973Z,98634.97
2023-11-16T06:47:35.332Z,98627.88
2023-11-16T06:50:06.441Z,98613.94
2023-11-16T06:52:34.428Z,98615.53
2023-11-16T06:55:02.128Z,98614.53
2023-11-16T06:57:29.294Z,98606.16
2023-11-16T06:59:56.010Z,98615.31
2023-11-16T07:02:24.040Z,98603.25
2023-11-16T07:04:51.285Z,98614.78
2023-11-16T07:07:19.062Z,98623.56
2023-11-16T07:09:47.744Z,98620.78
2023-11-16T07:12:16.958Z,98607.22
2023-11-16T07:14:51.298Z,98600.63
2023-11-16T07:17:20.985Z,98599.78
2023-11-16T07:19:51.298Z,98599.63
2023-11-16T07:22:19.513Z,98586.41
2023-11-16T07:24:46.891Z,98587.53
2023-11-16T07:27:15.066Z,98581.94
2023-11-16T07:29:44.674Z,98593.28
2023-11-16T07:32:12.820Z,98588.97
2023-11-16T07:37:07.655Z,98573.56
2023-11-16T07:39:34.801Z,98569.38
2023-11-16T07:42:02.127Z,98571.13
2023-11-16T07:44:28.872Z,98564.44
2023-11-16T07:46:55.827Z,98557.44
2023-11-16T07:49:24.325Z,98558.28
2023-11-16T07:51:55.073Z,98553.97
2023-11-16T07:54:22.944Z,98552.13
2023-11-16T07:56:56.513Z,98555.84
2023-11-16T07:59:32.506Z,98544.69
2023-11-16T08:02:01.742Z,98541.03
2023-11-16T08:04:29.269Z,98541.03
2023-11-16T08:06:56.662Z,98532.41
2023-11-16T08:09:30.882Z,98529.28
2023-11-16T08:12:00.514Z,98525.56
2023-11-16T08:14:27.489Z,98516.94
2023-11-16T08:16:58.158Z,98516.34
2023-11-16T08:19:32.893Z,98514.44
2023-11-16T08:22:00.666Z,98509.25
2023-11-16T08:24:27.854Z,98498.25
2023-11-16T08:26:59.496Z,98500.06
2023-11-16T08:29:26.730Z,98491.06
2023-11-16T08:31:58.149Z,98497.00
2023-11-16T08:34:28.835Z,98488.56
2023-11-16T08:36:56.609Z,98480.88
2023-11-16T08:39:23.651Z,98476.56
2023-11-16T08:41:50.312Z,98473.19
2023-11-16T08:44:19.782Z,98473.06
2023-11-16T08:46:53.541Z,98465.47
2023-11-16T08:49:20.603Z,98449.56
2023-11-16T08:51:48.748Z,98445.53
2023-11-16T08:54:17.417Z,98437.06
2023-11-16T08:56:44.984Z,98438.56
2023-11-16T08:59:14.151Z,98435.25
2023-11-16T09:01:41.125Z,98426.47
2023-11-16T09:04:12.745Z,98416.91
2023-11-16T09:06:40.904Z,98413.84
2023-11-16T09:09:30.138Z,98411.59
2023-11-16T09:11:58.473Z,98407.47
2023-11-16T09:14:27.825Z,98390.19
2023-11-16T09:17:12.298Z,98381.94
2023-11-16T09:19:40.660Z,98379.88
2023-11-16T09:22:09.550Z,98377.25
2023-11-16T09:24:38.323Z,98357.59
2023-11-16T09:27:05.785Z,98341.16
2023-11-16T09:29:32.509Z,98330.31
2023-11-16T09:31:59.716Z,98323.69
2023-11-16T09:34:28.373Z,98319.38
2023-11-16T09:36:55.023Z,98314.16
2023-11-16T09:39:23.481Z,98306.25
2023-11-16T09:41:50.822Z,98304.81
2023-11-16T09:44:19.094Z,98294.44
2023-11-16T09:46:53.793Z,98290.03
2023-11-16T09:49:25.682Z,98283.09
2023-11-16T09:51:53.118Z,98273.63
2023-11-16T09:54:23.847Z,98269.16
2023-11-16T09:56:55.914Z,98266.94
2023-11-16T09:59:44.296Z,98256.63
2023-11-16T10:02:16.773Z,98248.31
2023-11-16T10:04:47.094Z,98234.47
2023-11-16T10:07:17.419Z,98227.63
2023-11-16T10:09:44.864Z,98224.06
2023-11-16T10:12:12.598Z,98219.56
2023-11-16T10:14:41.441Z,98218.63
2023-11-16T10:17:08.658Z,98197.78
2023-11-16T10:19:35.880Z,98191.88
2023-11-16T10:22:02.761Z,98191.38
2023-11-16T10:24:33.948Z,98179.97
2023-11-16T10:27:00.565Z,98184.38
2023-11-16T10:29:27.346Z,98186.41
2023-11-16T10:31:54.948Z,98182.59
2023-11-16T10:34:25.901Z,98185.59
2023-11-16T10:36:58.649Z,98179.31
2023-11-16T10:39:31.943Z,98191.75
2023-11-16T10:42:03.195Z,98194.19
2023-11-16T10:44:30.954Z,98204.56
2023-11-16T10:47:02.941Z,98210.88
2023-11-16T10:49:30.274Z,98213.50
2023-11-16T10:52:02.433Z,98224.44
2023-11-16T10:54:37.630Z,98222.59
2023-11-16T10:57:06.133Z,98223.41
2023-11-16T10:59:33.772Z,98221.25
2023-11-16T11:02:04.925Z,98222.66
2023-11-16T11:04:31.765Z,98219.94
2023-11-16T11:06:59.320Z,98210.56
2023-11-16T11:09:43.480Z,98208.41
2023-11-16T11:12:14.741Z,98204.56
2023-11-16T11:14:52.837Z,98203.84
2023-11-16T11:17:20.447Z,98197.66
2023-11-16T11:20:00.695Z,98181.22
2023-11-16T11:22:28.629Z,98175.88
2023-11-16T11:25:03.298Z,98161.63
2023-11-16T11:27:32.046Z,98150.31
2023-11-16T11:30:10.337Z,98161.56
2023-11-16T11:35:13.481Z,98168.13
2023-11-16T11:37:40.411Z,98153.34
2023-11-16T11:40:09.370Z,98154.75
2023-11-16T11:42:39.686Z,98143.31
2023-11-16T11:45:06.751Z,98129.59
2023-11-16T11:47:33.671Z,98120.97
2023-11-16T11:50:03.495Z,98103.31
2023-11-16T11:52:31.104Z,98111.38
2023-11-16T11:54:57.809Z,98101.41
2023-11-16T11:57:31.550Z,98091.88
2023-11-16T12:00:07.535Z,98092.53
2023-11-16T12:02:35.168Z,98093.09
2023-11-16T12:05:02.176Z,98075.22
2023-11-16T12:07:29.689Z,98058.75
2023-11-16T12:09:56.473Z,98052.28
2023-11-16T12:12:24.034Z,98046.38
2023-11-16T12:14:52.797Z,98030.63
2023-11-16T12:17:22.217Z,98007.66
2023-11-16T12:19:50.033Z,98002.38
2023-11-16T12:22:17.548Z,97998.84
2023-11-16T12:24:47.940Z,97985.72
2023-11-16T12:27:16.386Z,97972.19
2023-11-16T12:29:54.175Z,97960.97
2023-11-16T12:32:20.790Z,97948.69
2023-11-16T12:34:49.332Z,97951.91
2023-11-16T12:37:16.214Z,97959.69
2023-11-16T12:39:42.814Z,97958.81
2023-11-16T12:42:10.298Z,97950.44
2023-11-16T12:44:37.585Z,97941.84
2023-11-16T12:47:04.576Z,97935.97
2023-11-16T12:49:31.227Z,97921.28
2023-11-16T12:51:58.095Z,97909.50
2023-11-16T12:54:24.845Z,97893.63
2023-11-16T12:56:53.409Z,97887.88
2023-11-16T12:59:20.079Z,97877.00
2023-11-16T13:01:46.960Z,97879.72
2023-11-16T13:04:14.732Z,97870.31
2023-11-16T13:06:41.539Z,97865.66
2023-11-16T13:09:10.917Z,97857.06
2023-11-16T13:11:38.505Z,97856.69
2023-11-16T13:14:05.657Z,97857.28
2023-11-16T13:16:32.325Z,97851.31
2023-11-16T13:19:00.401Z,97840.91
2023-11-16T13:21:27.129Z,97829.16
2023-11-16T13:23:54.754Z,97823.94
2023-11-16T13:26:22.144Z,97822.56
2023-11-16T13:28:48.858Z,97814.75
2023-11-16T13:31:15.879Z,97805.88
2023-11-16T13:33:42.678Z,97815.50
2023-11-16T13:36:09.901Z,97815.84
2023-11-16T13:38:36.644Z,97820.88
2023-11-16T13:41:06.644Z,97808.81
2023-11-16T13:43:34.581Z,97808.81
2023-11-16T13:46:03.022Z,97804.06
2023-11-16T13:48:31.559Z,97788.13
2023-11-16T13:50:58.457Z,97794.53
2023-11-16T13:53:29.877Z,97789.78
2023-11-16T13:55:59.132Z,97796.28
2023-11-16T13:58:25.954Z,97796.50
2023-11-16T14:00:53.902Z,97797.22
2023-11-16T14:03:22.298Z,97789.19
2023-11-16T14:05:49.121Z,97784.34
2023-11-16T14:08:16.010Z,97783.41
2023-11-16T14:10:42.658Z,97777.19
2023-11-16T14:13:09.872Z,97778.78
2023-11-16T14:15:37.399Z,97775.31
2023-11-16T14:18:04.317Z,97769.44
2023-11-16T14:20:30.984Z,97765.75
2023-11-16T14:22:57.576Z,97764.72
2023-11-16T14:25:30.812Z,97767.53
2023-11-16T14:28:04.104Z,97762.59
2023-11-16T14:30:30.947Z,97759.78
2023-11-16T14:32:57.979Z,97755.16
2023-11-16T14:35:26.720Z,97756.47
2023-11-16T14:37:53.885Z,97749.91
2023-11-16T14:40:21.552Z,97740.06
2023-11-16T14:42:48.337Z,97732.72
2023-11-16T14:45:15.005Z,97731.78
2023-11-16T14:47:41.779Z,97719.94
2023-11-16T14:50:14.407Z,97720.97
2023-11-16T14:52:43.422Z,97729.16
2023-11-16T14:55:11.085Z,97718.38
2023-11-16T14:57:41.110Z,97719.84
2023-11-16T15:00:09.635Z,97716.28
2023-11-16T15:02:37.699Z,97710.75
2023-11-16T15:05:09.892Z,97703.97
2023-11-16T15:07:39.161Z,97705.13
2023-11-16T15:10:08.769Z,97694.88
2023-11-16T15:12:36.248Z,97705.50
2023-11-16T15:15:03.478Z,97693.38
2023-11-16T15:17:35.544Z,97681.97
2023-11-16T15:20:08.920Z,97682.56
2023-11-16T15:22:49.448Z,97681.22
2023-11-16T15:25:18.894Z,97692.25
2023-11-16T15:27:45.520Z,97691.50
2023-11-16T15:30:14.731Z,97690.00
2023-11-16T15:32:41.521Z,97694.38
2023-11-16T15:35:08.812Z,97691.16
2023-11-16T15:37:35.685Z,97690.44
2023-11-16T15:40:02.583Z,97680.97
2023-11-16T15:42:29.374Z,97681.09
2023-11-16T15:44:56.417Z,97671.25
2023-11-16T15:47:23.867Z,97678.72
2023-11-16T15:49:51.077Z,97672.41
2023-11-16T15:52:17.856Z,97668.41
2023-11-16T15:54:47.440Z,97663.56
2023-11-16T15:57:14.378Z,97668.41
2023-11-16T15:59:42.556Z,97672.19
2023-11-16T16:02:10.355Z,97667.16
2023-11-16T16:04:38.053Z,97673.47
2023-11-16T16:07:08.205Z,97664.97
2023-11-16T16:09:35.317Z,97665.94
2023-11-16T16:12:02.065Z,97670.25
2023-11-16T16:14:28.836Z,97663.78
2023-11-16T16:16:58.064Z,97664.47
2023-11-16T16:19:26.347Z,97652.88
2023-11-16T16:21:53.433Z,97658.84
2023-11-16T16:24:20.104Z,97655.38
2023-11-16T16:26:47.775Z,97654.63
2023-11-16T16:29:15.946Z,97647.72
2023-11-16T16:31:44.527Z,97651.84
2023-11-16T16:34:15.068Z,97657.41
2023-11-16T16:36:42.164Z,97648.63
2023-11-16T16:39:14.559Z,97649.34
2023-11-16T16:41:46.791Z,97653.59
2023-11-16T16:44:13.525Z,97648.41
2023-11-16T16:46:43.397Z,97651.88
2023-11-16T16:49:11.923Z,97651.69
2023-11-16T16:51:40.438Z,97647.41
2023-11-16T16:54:10.676Z,97648.16
2023-11-16T16:56:37.489Z,97640.25
2023-11-16T16:59:07.496Z,97648.94
2023-11-16T17:01:35.845Z,97644.66
2023-11-16T17:04:03.781Z,97645.81
2023-11-16T17:06:30.905Z,97652.81
2023-11-16T17:08:58.102Z,97654.19
2023-11-16T17:11:25.637Z,97647.84
2023-11-16T17:13:56.632Z,97647.59
2023-11-16T17:16:23.641Z,97648.88
2023-11-16T17:18:51.204Z,97653.59
2023-11-16T17:21:20.469Z,97647.84
2023-11-16T17:23:47.063Z,97634.28
2023-11-16T17:26:13.823Z,97632.03
2023-11-16T17:28:40.549Z,97627.06
2023-11-16T17:31:08.143Z,97640.03
2023-11-16T17:33:35.663Z,97644.63
2023-11-16T17:36:06.013Z,97648.09
2023-11-16T17:38:36.910Z,97636.44
2023-11-16T17:41:06.143Z,97639.38
2023-11-16T17:43:36.235Z,97641.19
2023-11-16T17:46:04.460Z,97636.78
2023-11-16T17:48:32.065Z,97637.19
2023-11-16T17:50:59.783Z,97633.81
2023-11-16T17:53:26.603Z,97634.13
2023-11-16T17:55:53.293Z,97626.91
2023-11-16T17:58:19.991Z,97626.53
2023-11-16T18:00:46.837Z,97626.22
2023-11-16T18:03:13.664Z,97636.69
2023-11-16T18:05:41.500Z,97642.75
2023-11-16T18:08:09.748Z,97644.13
2023-11-16T18:10:44.956Z,97640.88
2023-11-16T18:13:18.108Z,97642.13
2023-11-16T18:15:45.216Z,97650.59
2023-11-16T18:18:12.393Z,97662.19
2023-11-16T18:20:40.278Z,97667.31
2023-11-16T18:23:09.092Z,97675.66
2023-11-16T18:25:41.214Z,97680.41
2023-11-16T18:28:13.733Z,97676.94
2023-11-16T18:30:43.600Z,97685.06
2023-11-16T18:33:11.151Z,97688.97
2023-11-16T18:35:42.014Z,97681.13
2023-11-16T18:38:11.578Z,97684.56
2023-11-16T18:40:42.301Z,97689.34
2023-11-16T18:43:11.093Z,97692.91
2023-11-16T18:45:38.092Z,97695.16
2023-11-16T18:48:10.687Z,97699.31
2023-11-16T18:50:38.712Z,97704.28
2023-11-16T18:53:05.479Z,97704.53
2023-11-16T18:55:32.299Z,97697.63
2023-11-16T18:57:59.240Z,97694.88
2023-11-16T19:00:26.668Z,97695.22
2023-11-16T19:02:54.047Z,97695.78
2023-11-16T19:05:22.135Z,97694.94
2023-11-16T19:07:51.375Z,97693.34
2023-11-16T19:10:21.329Z,97688.13
2023-11-16T19:12:48.056Z,97694.22
2023-11-16T19:15:14.908Z,97694.09
2023-11-16T19:17:41.792Z,97695.03
2023-11-16T19:20:15.671Z,97694.28
2023-11-16T19:22:43.774Z,97700.66
2023-11-16T19:25:10.791Z,97697.84
2023-11-16T19:27:37.575Z,97704.56
2023-11-16T19:30:04.621Z,97693.47
2023-11-16T19:32:36.087Z,97693.75
2023-11-16T19:35:02.825Z,97693.00
2023-11-16T19:37:30.162Z,97701.69
2023-11-16T19:39:56.817Z,97702.72
2023-11-16T19:42:23.759Z,97703.72
2023-11-16T19:44:50.371Z,97706.25
2023-11-16T19:47:23.193Z,97708.41
2023-11-16T19:49:56.274Z,97714.09
2023-11-16T19:52:22.874Z,97731.47
2023-11-16T19:54:49.515Z,97737.06
2023-11-16T19:57:16.278Z,97740.25
2023-11-16T19:59:42.936Z,97746.75
2023-11-16T20:02:13.707Z,97748.16
2023-11-16T20:04:40.837Z,97756.00
2023-11-16T20:07:07.521Z,97758.34
2023-11-16T20:09:36.602Z,97766.56
2023-11-16T20:12:03.736Z,97769.34
2023-11-16T20:14:31.144Z,97778.31
2023-11-16T20:17:04.419Z,97782.69
2023-11-16T20:19:31.989Z,97788.78
2023-11-16T20:21:58.721Z,97801.00
2023-11-16T20:24:25.769Z,97805.00
2023-11-16T20:26:52.334Z,97815.47
2023-11-16T20:29:18.893Z,97821.78
2023-11-16T20:31:45.509Z,97831.88
2023-11-16T20:34:15.838Z,97837.94
2023-11-16T20:36:42.532Z,97846.22
2023-11-16T20:39:10.163Z,97849.94
2023-11-16T20:41:43.364Z,97866.31
2023-11-16T20:44:10.583Z,97877.25
2023-11-16T20:46:37.358Z,97880.38
2023-11-16T20:49:04.335Z,97891.56
2023-11-16T20:51:31.016Z,97898.47
2023-11-16T20:53:57.735Z,97917.22
2023-11-16T20:56:27.759Z,97928.34
2023-11-16T20:58:54.361Z,97930.09
2023-11-16T21:01:20.962Z,97932.69
2023-11-16T21:03:48.947Z,97930.88
2023-11-16T21:06:16.561Z,97936.25
2023-11-16T21:08:43.185Z,97935.31
2023-11-16T21:11:12.283Z,97938.38
2023-11-16T21:13:41.646Z,97956.41
2023-11-16T21:16:11.424Z,97961.38
2023-11-16T21:18:41.394Z,97974.94
2023-11-16T21:21:08.027Z,97979.47
2023-11-16T21:23:37.959Z,97990.84
2023-11-16T21:26:05.629Z,98009.25
2023-11-16T21:28:32.282Z,98019.03
2023-11-16T21:30:59.058Z,98038.94
2023-11-16T21:33:25.757Z,98056.88
2023-11-16T21:35:52.449Z,98066.56
2023-11-16T21:38:19.365Z,98075.66
2023-11-16T21:40:46.025Z,98084.69
2023-11-16T21:43:13.615Z,98092.25
2023-11-16T21:45:41.163Z,98101.78
2023-11-16T21:48:08.129Z,98100.09
2023-11-16T21:50:37.725Z,98106.41
2023-11-16T21:53:10.093Z,98121.25
2023-11-16T21:55:36.974Z,98124.00
2023-11-16T21:58:03.653Z,98128.75
2023-11-16T22:00:30.271Z,98118.31
2023-11-16T22:02:57.238Z,98131.47
2023-11-16T22:05:24.683Z,98143.50
2023-11-16T22:07:51.317Z,98145.59
2023-11-16T22:10:19.517Z,98156.97
2023-11-16T22:12:53.615Z,98159.34
2023-11-16T22:15:20.743Z,98172.53
2023-11-16T22:17:49.775Z,98181.69
2023-11-16T22:20:18.068Z,98188.00
2023-11-16T22:22:49.003Z,98193.47
2023-11-16T22:25:17.116Z,98199.06
2023-11-16T22:27:45.203Z,98214.94
2023-11-16T22:30:18.469Z,98219.81
2023-11-16T22:32:45.704Z,98222.88
2023-11-16T22:35:13.000Z,98237.06
2023-11-16T22:37:41.353Z,98244.28
2023-11-16T22:40:15.040Z,98251.00
2023-11-16T22:42:42.276Z,98260.69
2023-11-16T22:45:10.656Z,98264.25
2023-11-16T22:47:38.186Z,98273.03
2023-11-16T22:50:08.579Z,98287.94
2023-11-16T22:52:36.900Z,98288.69
2023-11-16T22:55:04.865Z,98289.63
2023-11-16T22:57:31.859Z,98297.56
2023-11-16T22:59:58.491Z,98306.16
2023-11-16T23:02:25.394Z,98314.94
2023-11-16T23:04:52.107Z,98321.09
2023-11-16T23:07:19.788Z,98329.69
2023-11-16T23:09:46.664Z,98339.63
2023-11-16T23:12:13.437Z,98346.53
2023-11-16T23:14:40.095Z,98360.69
2023-11-16T23:17:10.736Z,98355.84
2023-11-16T23:19:40.548Z,98363.59
2023-11-16T23:22:12.535Z,98376.38
2023-11-16T23:24:45.736Z,98377.50
2023-11-16T23:27:13.934Z,98390.72
2023-11-16T23:29:41.568Z,98397.28
2023-11-16T23:32:08.839Z,98397.72
2023-11-16T23:34:36.560Z,98406.31
2023-11-16T23:37:03.652Z,98415.25
2023-11-16T23:39:30.889Z,98422.22
2023-11-16T23:42:00.998Z,98425.84
2023-11-16T23:44:28.471Z,98427.16
2023-11-16T23:46:56.008Z,98436.38
2023-11-16T23:49:23.656Z,98444.22
2023-11-16T23:51:50.464Z,98452.16
2023-11-16T23:54:18.151Z,98452.22
2023-11-16T23:56:47.628Z,98452.00
2023-11-16T23:59:14.201Z,98457.84
